createdAt,value
2018-04-14T00:01:28.799Z,90.10
2018-04-14T00:03:56.333Z,90.10
2018-04-14T00:06:23.863Z,90.30
2018-04-14T00:08:51.408Z,90.60
2018-04-14T00:11:18.995Z,90.60
2018-04-14T00:13:46.503Z,90.90
2018-04-14T00:16:14.252Z,90.90
2018-04-14T00:18:41.789Z,90.90
2018-04-14T00:21:09.333Z,90.70
2018-04-14T00:23:36.883Z,90.60
2018-04-14T00:26:04.454Z,90.80
2018-04-14T00:28:31.993Z,90.80
2018-04-14T00:30:59.519Z,90.90
2018-04-14T00:33:27.821Z,90.50
2018-04-14T00:35:55.341Z,90.50
2018-04-14T00:38:23.645Z,90.80
2018-04-14T00:40:51.269Z,90.70
2018-04-14T00:43:18.858Z,91.10
2018-04-14T00:45:46.377Z,90.80
2018-04-14T00:48:13.921Z,91.10
2018-04-14T00:50:41.451Z,91.10
2018-04-14T00:53:21.503Z,91.10
2018-04-14T00:55:49.796Z,91.00
2018-04-14T00:58:17.343Z,91.00
2018-04-14T01:00:44.871Z,91.00
2018-04-14T01:03:12.405Z,90.90
2018-04-14T01:05:40.730Z,90.60
2018-04-14T01:08:08.257Z,90.60
2018-04-14T01:10:35.800Z,90.40
2018-04-14T01:13:03.324Z,90.50
2018-04-14T01:15:30.882Z,90.60
2018-04-14T01:17:58.417Z,90.50
2018-04-14T01:20:25.956Z,90.50
2018-04-14T01:22:53.486Z,90.60
2018-04-14T01:25:21.787Z,90.70
2018-04-14T01:27:49.312Z,90.70
2018-04-14T01:30:16.847Z,90.50
2018-04-14T01:32:44.379Z,90.50
2018-04-14T01:35:11.915Z,90.50
2018-04-14T01:37:39.447Z,90.50
2018-04-14T01:40:06.993Z,90.30
2018-04-14T01:42:34.518Z,90.50
2018-04-14T01:45:02.061Z,90.60
2018-04-14T01:47:29.592Z,90.30
2018-04-14T01:49:57.889Z,90.30
2018-04-14T01:52:25.447Z,90.30
2018-04-14T01:54:52.971Z,90.10
2018-04-14T01:57:20.516Z,90.40
2018-04-14T01:59:48.053Z,90.20
2018-04-14T02:02:15.752Z,90.30
2018-04-14T02:04:43.304Z,90.60
2018-04-14T02:07:11.667Z,90.50
2018-04-14T02:09:39.200Z,90.50
2018-04-14T02:12:06.754Z,90.50
2018-04-14T02:14:34.281Z,90.50
2018-04-14T02:17:01.838Z,90.40
2018-04-14T02:19:29.365Z,90.40
2018-04-14T02:21:57.696Z,90.40
2018-04-14T02:24:25.254Z,90.40
2018-04-14T02:26:52.792Z,90.50
2018-04-14T02:29:20.384Z,90.80
2018-04-14T02:31:47.940Z,90.20
2018-04-14T02:34:15.471Z,90.40
2018-04-14T02:36:43.780Z,90.30
2018-04-14T02:39:11.310Z,90.30
2018-04-14T02:41:38.861Z,90.50
2018-04-14T02:44:06.391Z,90.50
2018-04-14T02:46:33.925Z,90.40
2018-04-14T02:49:01.483Z,90.40
2018-04-14T02:51:29.031Z,90.30
2018-04-14T02:53:56.577Z,90.50
2018-04-14T02:56:24.131Z,90.60
2018-04-14T02:58:51.676Z,90.60
2018-04-14T03:01:19.296Z,90.90
2018-04-14T03:03:46.852Z,90.90
2018-04-14T03:06:15.177Z,90.90
2018-04-14T03:08:42.761Z,90.90
2018-04-14T03:11:10.321Z,90.90
2018-04-14T03:13:37.873Z,90.70
2018-04-14T03:16:05.901Z,90.70
2018-04-14T03:18:33.465Z,90.90
2018-04-14T03:21:01.008Z,91.20
2018-04-14T03:23:28.574Z,91.20
2018-04-14T03:25:56.106Z,91.20
2018-04-14T03:28:24.459Z,90.90
2018-04-14T03:30:51.993Z,90.80
2018-04-14T03:33:19.554Z,91.00
2018-04-14T03:35:47.088Z,91.20
2018-04-14T03:38:14.632Z,91.10
2018-04-14T03:40:42.160Z,91.20
2018-04-14T03:43:09.718Z,91.10
2018-04-14T03:45:37.291Z,91.40
2018-04-14T03:48:05.610Z,91.30
2018-04-14T03:50:33.181Z,91.30
2018-04-14T03:53:00.708Z,91.10
2018-04-14T03:55:28.261Z,91.10
2018-04-14T03:57:55.806Z,91.00
2018-04-14T04:00:23.382Z,90.90
2018-04-14T04:02:50.931Z,90.90
2018-04-14T04:05:18.479Z,90.90
2018-04-14T04:07:46.778Z,91.50
2018-04-14T04:10:14.337Z,91.40
2018-04-14T04:12:41.885Z,91.50
2018-04-14T04:15:09.427Z,91.30
2018-04-14T04:17:37.738Z,91.70
2018-04-14T04:20:17.193Z,91.60
2018-04-14T04:22:56.381Z,91.80
2018-04-14T04:25:31.453Z,91.90
2018-04-14T04:27:58.990Z,91.70
2018-04-14T04:30:26.973Z,91.70
2018-04-14T04:32:54.505Z,91.80
2018-04-14T04:35:22.053Z,91.70
2018-04-14T04:37:49.581Z,91.60
2018-04-14T04:40:17.121Z,91.60
2018-04-14T04:42:44.680Z,91.50
2018-04-14T04:45:13.285Z,91.50
2018-04-14T04:47:40.838Z,91.40
2018-04-14T04:50:08.367Z,91.10
2018-04-14T04:52:35.916Z,91.00
2018-04-14T04:55:03.456Z,91.00
2018-04-14T04:57:31.773Z,91.10
2018-04-14T04:59:59.322Z,91.10
2018-04-14T05:02:26.865Z,91.10
2018-04-14T05:04:54.389Z,91.00
2018-04-14T05:07:21.936Z,91.00
2018-04-14T05:09:49.460Z,91.00
2018-04-14T05:12:17.017Z,91.00
2018-04-14T05:14:44.537Z,91.30
2018-04-14T05:17:12.083Z,91.10
2018-04-14T05:19:39.623Z,91.00
2018-04-14T05:22:07.288Z,91.10
2018-04-14T05:24:34.814Z,91.20
2018-04-14T05:27:02.368Z,91.20
2018-04-14T05:29:29.901Z,91.30
2018-04-14T05:31:57.449Z,91.30
2018-04-14T05:34:24.999Z,91.30
2018-04-14T05:36:52.549Z,91.40
2018-04-14T05:39:20.076Z,91.30
2018-04-14T05:41:47.633Z,91.30
2018-04-14T05:44:15.179Z,91.20
2018-04-14T05:46:42.730Z,91.10
2018-04-14T05:49:10.278Z,90.90
2018-04-14T05:51:37.835Z,90.90
2018-04-14T05:54:06.364Z,90.90
2018-04-14T05:56:34.727Z,90.80
2018-04-14T05:59:02.279Z,90.80
2018-04-14T06:01:29.815Z,90.70
2018-04-14T06:03:57.420Z,90.80
2018-04-14T06:06:24.961Z,91.00
2018-04-14T06:08:53.277Z,90.90
2018-04-14T06:11:20.824Z,90.80
2018-04-14T06:13:48.465Z,90.60
2018-04-14T06:16:15.988Z,90.90
2018-04-14T06:18:43.727Z,90.20
2018-04-14T06:21:12.019Z,90.20
2018-04-14T06:23:39.579Z,90.20
2018-04-14T06:26:07.128Z,90.10
2018-04-14T06:28:34.875Z,90.00
2018-04-14T06:31:02.422Z,89.70
2018-04-14T06:33:29.971Z,90.00
2018-04-14T06:35:57.504Z,89.50
2018-04-14T06:38:25.856Z,89.30
2018-04-14T06:40:53.671Z,89.30
2018-04-14T06:43:22.263Z,89.40
2018-04-14T06:45:50.573Z,89.30
2018-04-14T06:48:18.207Z,89.30
2018-04-14T06:50:45.747Z,88.90
2018-04-14T06:53:13.272Z,89.10
2018-04-14T06:55:41.398Z,89.00
2018-04-14T06:58:08.920Z,89.20
2018-04-14T07:00:38.023Z,88.30
2018-04-14T07:03:06.090Z,88.30
2018-04-14T07:05:33.633Z,88.20
2018-04-14T07:08:01.944Z,88.00
2018-04-14T07:10:29.507Z,88.10
2018-04-14T07:12:57.821Z,88.00
2018-04-14T07:15:25.376Z,88.00
2018-04-14T07:17:52.904Z,87.70
2018-04-14T07:20:21.270Z,86.60
2018-04-14T07:22:48.804Z,84.10
2018-04-14T07:25:16.361Z,80.00
2018-04-14T07:27:44.676Z,71.90
2018-04-14T07:30:12.598Z,71.90
2018-04-14T07:32:40.315Z,67.90
2018-04-14T07:35:07.861Z,61.20
2018-04-14T07:37:35.455Z,60.20
2018-04-14T07:40:02.984Z,62.70
2018-04-14T07:42:30.541Z,66.60
2018-04-14T07:44:58.155Z,64.80
2018-04-14T07:47:25.656Z,67.10
2018-04-14T07:49:53.209Z,67.30
2018-04-14T07:52:20.745Z,65.10
2018-04-14T07:54:48.313Z,66.80
2018-04-14T07:57:15.853Z,67.30
2018-04-14T07:59:43.375Z,69.00
2018-04-14T08:02:10.955Z,69.50
2018-04-14T08:04:38.476Z,71.20
2018-04-14T08:07:06.008Z,71.50
2018-04-14T08:09:33.548Z,71.50
2018-04-14T08:12:01.410Z,71.90
2018-04-14T08:14:28.957Z,72.30
2018-04-14T08:16:57.277Z,70.70
2018-04-14T08:19:24.801Z,70.70
2018-04-14T08:21:52.349Z,72.30
2018-04-14T08:24:20.655Z,70.40
2018-04-14T08:26:48.217Z,70.30
2018-04-14T08:29:15.757Z,69.30
2018-04-14T08:31:43.312Z,71.10
2018-04-14T08:34:10.847Z,69.40
2018-04-14T08:36:38.394Z,67.20
2018-04-14T08:39:05.930Z,64.90
2018-04-14T08:41:33.486Z,61.50
2018-04-14T08:44:01.016Z,60.10
2018-04-14T08:46:28.569Z,57.50
2018-04-14T08:48:56.113Z,55.50
2018-04-14T08:51:23.691Z,54.30
2018-04-14T08:53:51.326Z,56.90
2018-04-14T08:56:18.913Z,57.30
2018-04-14T08:58:46.457Z,55.10
2018-04-14T09:01:14.191Z,53.10
2018-04-14T09:03:42.525Z,52.20
2018-04-14T09:06:10.085Z,52.10
2018-04-14T09:08:37.848Z,52.20
2018-04-14T09:11:05.777Z,55.30
2018-04-14T09:13:33.328Z,55.50
2018-04-14T09:16:00.863Z,54.20
2018-04-14T09:18:29.251Z,48.60
2018-04-14T09:20:57.549Z,48.00
2018-04-14T09:23:25.109Z,47.80
2018-04-14T09:25:52.667Z,45.40
2018-04-14T09:28:20.308Z,45.00
2018-04-14T09:30:47.835Z,47.60
2018-04-14T09:33:15.376Z,44.40
2018-04-14T09:35:42.952Z,45.90
2018-04-14T09:38:10.603Z,48.20
2018-04-14T09:40:38.139Z,48.10
2018-04-14T09:43:05.692Z,48.90
2018-04-14T09:45:33.237Z,49.30
2018-04-14T09:48:00.781Z,52.10
2018-04-14T09:50:28.322Z,52.40
2018-04-14T09:52:56.645Z,52.40
2018-04-14T09:55:24.178Z,52.30
2018-04-14T09:57:51.782Z,52.60
2018-04-14T10:00:24.996Z,48.40
2018-04-14T10:02:52.575Z,48.80
2018-04-14T10:05:20.855Z,46.70
2018-04-14T10:07:49.976Z,48.20
2018-04-14T10:10:17.556Z,48.10
2018-04-14T10:12:45.111Z,48.80
2018-04-14T10:15:12.666Z,48.10
2018-04-14T10:17:40.196Z,49.90
2018-04-14T10:20:07.746Z,50.50
2018-04-14T10:22:35.285Z,52.40
2018-04-14T10:25:02.836Z,52.10
2018-04-14T10:27:31.136Z,50.90
2018-04-14T10:29:58.681Z,50.80
2018-04-14T10:32:27.469Z,50.70
2018-04-14T10:34:55.792Z,51.70
2018-04-14T10:37:23.335Z,51.60
2018-04-14T10:39:50.906Z,53.80
2018-04-14T10:42:18.445Z,50.30
2018-04-14T10:44:45.993Z,50.10
2018-04-14T10:47:13.529Z,50.10
2018-04-14T10:49:41.846Z,50.10
2018-04-14T10:52:09.375Z,50.00
2018-04-14T10:54:36.931Z,50.40
2018-04-14T10:57:04.489Z,49.90
2018-04-14T10:59:32.094Z,50.70
2018-04-14T11:01:59.626Z,51.90
2018-04-14T11:04:27.185Z,51.70
2018-04-14T11:06:54.720Z,51.30
2018-04-14T11:09:22.265Z,51.30
2018-04-14T11:11:50.560Z,49.60
2018-04-14T11:14:18.112Z,49.50
2018-04-14T11:16:45.653Z,49.70
2018-04-14T11:19:14.017Z,50.60
2018-04-14T11:21:41.553Z,50.60
2018-04-14T11:24:09.101Z,49.10
2018-04-14T11:26:36.628Z,49.50
2018-04-14T11:29:04.151Z,49.90
2018-04-14T11:31:31.697Z,50.80
2018-04-14T11:33:59.232Z,49.90
2018-04-14T11:36:26.782Z,50.00
2018-04-14T11:38:54.317Z,49.90
2018-04-14T11:41:21.877Z,47.90
2018-04-14T11:43:49.412Z,47.90
2018-04-14T11:46:17.749Z,50.20
2018-04-14T11:48:45.305Z,50.10
2018-04-14T11:51:12.912Z,45.80
2018-04-14T11:53:40.444Z,48.10
2018-04-14T11:56:07.985Z,46.30
2018-04-14T11:58:35.535Z,49.40
2018-04-14T12:01:03.099Z,48.70
2018-04-14T12:03:30.628Z,48.00
2018-04-14T12:05:58.180Z,46.90
2018-04-14T12:08:25.709Z,48.20
2018-04-14T12:10:54.110Z,47.60
2018-04-14T12:13:21.657Z,47.60
2018-04-14T12:15:49.973Z,49.10
2018-04-14T12:18:17.508Z,49.10
2018-04-14T12:20:45.059Z,48.40
2018-04-14T12:23:12.645Z,47.60
2018-04-14T12:25:40.213Z,46.30
2018-04-14T12:28:07.740Z,47.80
2018-04-14T12:30:36.113Z,47.60
2018-04-14T12:33:03.651Z,47.80
2018-04-14T12:35:31.237Z,47.20
2018-04-14T12:37:59.068Z,46.90
2018-04-14T12:40:26.592Z,46.90
2018-04-14T12:42:54.147Z,48.40
2018-04-14T12:45:21.685Z,49.40
2018-04-14T12:47:49.232Z,46.60
2018-04-14T12:50:16.794Z,46.30
2018-04-14T12:52:44.344Z,46.90
2018-04-14T12:55:11.868Z,47.60
2018-04-14T12:57:39.421Z,48.60
2018-04-14T13:00:06.957Z,49.60
2018-04-14T13:02:34.522Z,48.30
2018-04-14T13:05:02.055Z,50.60
2018-04-14T13:07:29.605Z,52.20
2018-04-14T13:09:57.901Z,56.00
2018-04-14T13:12:25.446Z,56.00
2018-04-14T13:14:52.977Z,57.80
2018-04-14T13:17:20.539Z,58.00
2018-04-14T13:19:48.072Z,59.30
2018-04-14T13:22:15.761Z,60.50
2018-04-14T13:24:43.347Z,62.30
2018-04-14T13:27:10.863Z,63.50
2018-04-14T13:29:39.183Z,64.30
2018-04-14T13:32:06.743Z,64.20
2018-04-14T13:34:34.272Z,65.40
2018-04-14T13:37:01.850Z,65.40
2018-04-14T13:39:29.418Z,64.80
2018-04-14T13:41:56.995Z,65.10
2018-04-14T13:44:24.541Z,65.00
2018-04-14T13:46:52.162Z,64.20
2018-04-14T13:49:19.689Z,64.40
2018-04-14T13:51:47.247Z,63.50
2018-04-14T13:54:15.569Z,61.70
2018-04-14T13:56:43.133Z,61.50
2018-04-14T13:59:10.703Z,61.50
2018-04-14T14:01:38.249Z,61.20
2018-04-14T14:04:05.844Z,61.60
2018-04-14T14:06:33.430Z,63.10
2018-04-14T14:09:00.979Z,61.20
2018-04-14T14:11:29.324Z,61.50
2018-04-14T14:13:56.872Z,61.50
2018-04-14T14:16:24.400Z,62.60
2018-04-14T14:18:51.950Z,61.10
2018-04-14T14:21:19.521Z,60.20
2018-04-14T14:23:47.072Z,60.00
2018-04-14T14:26:14.633Z,59.60
2018-04-14T14:28:42.232Z,59.80
2018-04-14T14:31:09.780Z,59.50
2018-04-14T14:33:37.329Z,60.30
2018-04-14T14:36:04.866Z,58.70
2018-04-14T14:38:32.423Z,59.80
2018-04-14T14:40:59.958Z,60.40
2018-04-14T14:43:27.504Z,60.40
2018-04-14T14:45:55.032Z,59.30
2018-04-14T14:48:22.615Z,60.30
2018-04-14T14:50:50.168Z,58.10
2018-04-14T14:53:17.691Z,58.20
2018-04-14T14:55:45.268Z,60.80
2018-04-14T14:58:12.830Z,59.80
2018-04-14T15:00:40.377Z,57.50
2018-04-14T15:03:07.904Z,57.50
2018-04-14T15:05:35.466Z,57.30
2018-04-14T15:08:03.010Z,58.00
2018-04-14T15:10:30.556Z,58.70
2018-04-14T15:12:58.103Z,59.40
2018-04-14T15:15:25.647Z,61.60
2018-04-14T15:17:53.191Z,60.80
2018-04-14T15:20:20.745Z,61.10
2018-04-14T15:22:48.272Z,61.40
2018-04-14T15:25:15.866Z,61.50
2018-04-14T15:27:43.380Z,61.10
2018-04-14T15:30:10.923Z,60.90
2018-04-14T15:32:38.499Z,59.90
2018-04-14T15:35:06.045Z,58.60
2018-04-14T15:37:33.572Z,58.30
2018-04-14T15:40:01.112Z,58.60
2018-04-14T15:42:28.650Z,59.20
2018-04-14T15:44:56.209Z,59.40
2018-04-14T15:47:23.762Z,59.70
2018-04-14T15:49:51.308Z,59.30
2018-04-14T15:52:18.845Z,59.10
2018-04-14T15:54:46.401Z,59.60
2018-04-14T15:57:13.935Z,59.30
2018-04-14T15:59:41.476Z,59.60
2018-04-14T16:02:09.023Z,60.10
2018-04-14T16:04:36.595Z,60.00
2018-04-14T16:07:04.142Z,61.70
2018-04-14T16:09:31.678Z,62.00
2018-04-14T16:11:59.232Z,62.50
2018-04-14T16:14:26.755Z,61.90
2018-04-14T16:16:55.073Z,62.30
2018-04-14T16:19:22.613Z,62.20
2018-04-14T16:21:50.172Z,63.10
2018-04-14T16:24:17.722Z,63.20
2018-04-14T16:26:45.274Z,63.80
2018-04-14T16:29:13.581Z,63.20
2018-04-14T16:31:41.124Z,63.10
2018-04-14T16:34:08.653Z,63.50
2018-04-14T16:36:36.968Z,61.80
2018-04-14T16:39:04.507Z,61.70
2018-04-14T16:41:32.075Z,61.40
2018-04-14T16:43:59.610Z,60.60
2018-04-14T16:46:28.608Z,59.70
2018-04-14T16:48:56.906Z,60.40
2018-04-14T16:51:24.450Z,60.40
2018-04-14T16:53:51.976Z,60.50
2018-04-14T16:56:19.528Z,61.20
2018-04-14T16:58:47.061Z,62.10
2018-04-14T17:01:14.672Z,62.80
2018-04-14T17:03:42.197Z,63.40
2018-04-14T17:06:09.736Z,63.20
2018-04-14T17:08:37.260Z,65.40
2018-04-14T17:11:04.812Z,66.70
2018-04-14T17:13:32.356Z,67.60
2018-04-14T17:15:59.883Z,68.70
2018-04-14T17:18:27.430Z,70.30
2018-04-14T17:20:54.956Z,70.30
2018-04-14T17:23:22.512Z,70.30
2018-04-14T17:25:50.045Z,71.30
2018-04-14T17:28:18.365Z,71.40
2018-04-14T17:30:45.900Z,71.40
2018-04-14T17:33:13.485Z,72.10
2018-04-14T17:35:41.038Z,72.80
2018-04-14T17:38:08.630Z,73.50
2018-04-14T17:40:36.228Z,73.60
2018-04-14T17:43:03.979Z,74.20
2018-04-14T17:45:31.520Z,74.30
2018-04-14T17:47:59.117Z,74.10
2018-04-14T17:50:26.673Z,74.40
2018-04-14T17:52:54.220Z,74.80
2018-04-14T17:55:22.535Z,77.60
2018-04-14T17:57:50.077Z,77.60
2018-04-14T18:00:17.602Z,78.50
2018-04-14T18:02:45.917Z,79.30
2018-04-14T18:05:13.478Z,79.20
2018-04-14T18:07:41.015Z,80.20
2018-04-14T18:10:08.569Z,80.90
2018-04-14T18:12:36.130Z,81.50
2018-04-14T18:15:03.672Z,81.80
2018-04-14T18:17:31.245Z,83.50
2018-04-14T18:19:58.784Z,83.80
2018-04-14T18:22:27.109Z,83.40
2018-04-14T18:24:54.642Z,83.40
2018-04-14T18:27:22.187Z,83.60
2018-04-14T18:29:49.777Z,83.50
2018-04-14T18:32:17.330Z,83.90
2018-04-14T18:34:44.875Z,84.90
2018-04-14T18:37:12.413Z,86.00
2018-04-14T18:39:40.757Z,86.50
2018-04-14T18:42:08.302Z,86.50
2018-04-14T18:44:35.877Z,87.10
2018-04-14T18:47:03.400Z,87.50
2018-04-14T18:49:30.949Z,87.80
2018-04-14T18:51:58.481Z,88.60
2018-04-14T18:54:26.025Z,88.30
2018-04-14T18:56:53.572Z,89.20
2018-04-14T18:59:21.926Z,88.90
2018-04-14T19:01:49.479Z,90.00
2018-04-14T19:04:17.044Z,88.80
2018-04-14T19:06:45.609Z,88.90
2018-04-14T19:09:13.170Z,88.80
2018-04-14T19:11:40.695Z,88.70
2018-04-14T19:14:08.485Z,88.80
2018-04-14T19:16:36.043Z,89.30
2018-04-14T19:19:03.581Z,90.20
2018-04-14T19:21:31.151Z,90.60
2018-04-14T19:23:58.680Z,90.30
2018-04-14T19:26:26.993Z,89.50
2018-04-14T19:28:54.541Z,90.00
2018-04-14T19:31:22.113Z,90.10
2018-04-14T19:33:49.636Z,90.30
2018-04-14T19:36:17.615Z,90.10
2018-04-14T19:38:45.169Z,90.10
2018-04-14T19:41:12.724Z,90.20
2018-04-14T19:43:41.044Z,90.20
2018-04-14T19:46:08.604Z,90.20
2018-04-14T19:48:36.959Z,90.60
2018-04-14T19:51:05.256Z,90.70
2018-04-14T19:53:32.787Z,90.60
2018-04-14T19:56:00.356Z,90.60
2018-04-14T19:58:27.887Z,90.90
2018-04-14T20:00:55.431Z,90.80
2018-04-14T20:03:23.724Z,91.30
2018-04-14T20:05:51.293Z,91.30
2018-04-14T20:08:18.828Z,91.10
2018-04-14T20:10:47.145Z,90.70
2018-04-14T20:13:14.679Z,90.60
2018-04-14T20:15:42.246Z,91.30
2018-04-14T20:18:09.773Z,90.90
2018-04-14T20:20:38.062Z,90.70
2018-04-14T20:23:05.617Z,90.60
2018-04-14T20:25:33.184Z,90.90
2018-04-14T20:28:00.753Z,90.90
2018-04-14T20:30:28.274Z,91.20
2018-04-14T20:32:55.883Z,91.30
2018-04-14T20:35:23.448Z,91.30
2018-04-14T20:37:50.986Z,91.50
2018-04-14T20:40:18.526Z,91.10
2018-04-14T20:42:46.080Z,91.10
2018-04-14T20:45:13.622Z,91.30
2018-04-14T20:47:41.963Z,91.60
2018-04-14T20:50:09.503Z,91.60
2018-04-14T20:52:37.088Z,91.70
2018-04-14T20:55:04.660Z,91.70
2018-04-14T20:57:32.199Z,91.90
2018-04-14T20:59:59.738Z,92.00
2018-04-14T21:02:28.089Z,91.70
2018-04-14T21:04:55.624Z,91.70
2018-04-14T21:07:23.180Z,91.70
2018-04-14T21:09:51.484Z,91.60
2018-04-14T21:12:19.044Z,91.60
2018-04-14T21:14:46.568Z,91.60
2018-04-14T21:17:14.129Z,91.50
2018-04-14T21:19:41.706Z,91.50
2018-04-14T21:22:09.302Z,92.00
2018-04-14T21:24:36.841Z,91.80
2018-04-14T21:27:04.405Z,91.20
2018-04-14T21:29:31.933Z,91.10
2018-04-14T21:31:59.480Z,90.90
2018-04-14T21:34:27.802Z,91.10
2018-04-14T21:36:55.350Z,91.10
2018-04-14T21:39:22.902Z,91.30
2018-04-14T21:41:50.424Z,91.40
2018-04-14T21:44:17.989Z,91.50
2018-04-14T21:46:45.558Z,91.80
2018-04-14T21:49:13.891Z,91.40
2018-04-14T21:51:41.415Z,91.30
2018-04-14T21:54:08.986Z,91.30
2018-04-14T21:56:36.542Z,91.40
2018-04-14T21:59:04.165Z,91.60
2018-04-14T22:01:31.784Z,91.40
2018-04-14T22:03:59.341Z,91.20
2018-04-14T22:06:26.890Z,91.30
2018-04-14T22:08:54.467Z,92.20
2018-04-14T22:11:22.012Z,92.20
2018-04-14T22:13:49.577Z,91.80
2018-04-14T22:16:17.133Z,91.80
2018-04-14T22:18:44.671Z,91.90
2018-04-14T22:21:12.201Z,91.40
2018-04-14T22:23:39.754Z,91.40
2018-04-14T22:26:07.304Z,90.70
2018-04-14T22:28:35.625Z,91.70
2018-04-14T22:31:03.161Z,91.70
2018-04-14T22:33:30.715Z,91.50
2018-04-14T22:35:58.262Z,91.40
2018-04-14T22:38:25.854Z,92.30
2018-04-14T22:40:53.383Z,92.20
2018-04-14T22:43:20.928Z,92.20
2018-04-14T22:45:48.531Z,92.50
2018-04-14T22:48:16.073Z,92.50
2018-04-14T22:50:43.617Z,92.50
2018-04-14T22:53:11.149Z,92.70
2018-04-14T22:55:39.457Z,92.80
2018-04-14T22:58:07.003Z,92.80
2018-04-14T23:00:34.561Z,92.80
2018-04-14T23:03:02.096Z,92.70
2018-04-14T23:05:29.633Z,92.50
2018-04-14T23:07:57.174Z,92.80
2018-04-14T23:10:24.727Z,92.90
2018-04-14T23:12:52.261Z,92.80
2018-04-14T23:15:19.856Z,92.70
2018-04-14T23:17:47.376Z,92.90
2018-04-14T23:20:14.924Z,93.10
2018-04-14T23:22:42.463Z,93.10
2018-04-14T23:25:10.768Z,93.30
2018-04-14T23:27:38.303Z,93.20
2018-04-14T23:30:06.632Z,93.40
2018-04-14T23:32:34.444Z,93.40
2018-04-14T23:35:02.756Z,93.30
2018-04-14T23:37:30.307Z,93.00
2018-04-14T23:39:57.871Z,92.60
2018-04-14T23:42:25.404Z,92.40
2018-04-14T23:44:53.369Z,92.30
2018-04-14T23:47:20.905Z,92.50
2018-04-14T23:49:48.449Z,92.60
2018-04-14T23:52:15.969Z,92.80
2018-04-14T23:54:43.550Z,93.00
2018-04-14T23:57:11.084Z,93.00
2018-04-14T23:59:38.617Z,93.00
